Time;durP1;ratioP1;P1;durP2;ratioP2;P2;SDS_P1;SDS_P2;PMS_P1;PMS_P2;Temp;Humidity;BMP_temperature;BMP_pressure;BME280_temperature;BME280_humidity;BME280_pressure;Samples;Min_cycle;Max_cycle;Signal;HPM_P1;HPM_P2
2022/04/13 00:00:06;;;;;;;10.27;7.78;;;;;;;12.70;100.00;163886.50;5031149;28;20555;-58
2022/04/13 00:02:31;;;;;;;15.98;6.10;;;;;;;12.68;100.00;163881.13;5029703;28;20125;-58
2022/04/13 00:04:56;;;;;;;12.43;6.63;;;;;;;12.60;100.00;163858.13;5030981;28;20045;-58
2022/04/13 00:07:23;;;;;;;9.50;5.47;;;;;;;12.59;100.00;163856.78;5029182;28;20049;-58
2022/04/13 00:09:49;;;;;;;15.25;5.85;;;;;;;12.56;100.00;163848.66;5031040;28;20013;-58
2022/04/13 00:12:14;;;;;;;13.70;5.72;;;;;;;12.61;100.00;163860.84;5029133;28;20046;-58
2022/04/13 00:14:40;;;;;;;19.95;7.45;;;;;;;12.62;100.00;163863.53;5031468;28;20025;-58
2022/04/13 00:17:05;;;;;;;16.73;7.10;;;;;;;12.59;100.00;163856.78;5029609;28;20045;-58
2022/04/13 00:19:30;;;;;;;12.43;6.10;;;;;;;12.59;100.00;163856.78;5030513;28;20028;-58
2022/04/13 00:21:56;;;;;;;13.25;6.22;;;;;;;12.60;100.00;163858.13;5029467;28;20045;-58
2022/04/13 00:24:22;;;;;;;10.77;5.13;;;;;;;12.58;100.00;163854.09;5031083;28;20036;-59
2022/04/13 00:26:47;;;;;;;15.35;6.20;;;;;;;12.62;100.00;163864.88;5029001;28;20033;-58
2022/04/13 00:29:12;;;;;;;13.90;5.25;;;;;;;12.68;100.00;163881.13;5030744;28;20377;-58
2022/04/13 00:31:38;;;;;;;10.82;5.35;;;;;;;12.70;100.00;163885.19;5029508;28;20033;-58
2022/04/13 00:34:03;;;;;;;10.20;5.22;;;;;;;12.68;100.00;163879.75;5030833;28;20075;-58
2022/04/13 00:36:28;;;;;;;16.55;5.38;;;;;;;12.66;100.00;163874.34;5030766;28;20025;-58
2022/04/13 00:38:54;;;;;;;11.50;4.97;;;;;;;12.67;100.00;163878.44;5029593;28;20040;-58
2022/04/13 00:41:21;;;;;;;11.50;5.53;;;;;;;12.61;100.00;163862.22;5030426;28;20025;-58
2022/04/13 00:44:01;;;;;;;10.20;5.72;;;;;;;12.48;100.00;163827.03;5029482;28;20069;-58
2022/04/13 00:46:26;;;;;;;10.27;5.53;;;;;;;12.33;100.00;163789.22;5030214;28;20030;-58
2022/04/13 00:48:51;;;;;;;12.32;6.65;;;;;;;12.25;100.00;163767.59;5028922;28;20042;-58
2022/04/13 00:51:17;;;;;;;11.30;5.95;;;;;;;12.19;100.00;163751.38;5030459;28;20026;-58
2022/04/13 00:53:42;;;;;;;15.52;5.07;;;;;;;12.12;100.00;163732.47;5029407;28;20515;-58
2022/04/13 00:56:08;;;;;;;13.95;6.15;;;;;;;12.07;100.00;163720.28;5030325;28;20029;-58
2022/04/13 00:58:37;;;;;;;12.32;6.28;;;;;;;12.03;100.00;163710.84;5028889;28;20104;-58
2022/04/13 01:01:03;;;;;;;10.45;5.80;;;;;;;11.98;100.00;163696.03;5030699;28;20133;-58
2022/04/13 01:03:30;;;;;;;9.40;6.00;;;;;;;11.89;100.00;163672.97;5028680;28;20117;-58
2022/04/13 01:05:55;;;;;;;8.40;5.18;;;;;;;11.80;100.00;163648.69;5031062;28;20033;-56
2022/04/13 01:08:20;;;;;;;16.80;6.28;;;;;;;11.71;100.00;163627.06;5032474;28;20138;-58
2022/04/13 01:10:48;;;;;;;13.05;7.00;;;;;;;11.65;100.00;163610.88;5034065;28;20029;-58
2022/04/13 01:13:14;;;;;;;15.88;6.82;;;;;;;11.71;100.00;163627.06;5033032;28;20033;-58
2022/04/13 01:15:40;;;;;;;9.63;6.45;;;;;;;11.65;100.00;163609.50;5034360;28;20512;-58
2022/04/13 01:18:06;;;;;;;6.50;5.72;;;;;;;11.59;100.00;163594.63;5032480;28;20042;-58
2022/04/13 01:20:34;;;;;;;14.65;6.15;;;;;;;11.53;100.00;163579.81;5033669;28;20098;-58
2022/04/13 01:23:00;;;;;;;10.93;6.28;;;;;;;11.50;100.00;163571.69;5032495;28;20045;-58
2022/04/13 01:25:25;;;;;;;12.00;7.28;;;;;;;11.53;100.00;163578.41;5033248;28;20041;-58
2022/04/13 01:27:51;;;;;;;14.20;7.38;;;;;;;11.54;100.00;163581.13;5032808;28;20044;-58
2022/04/13 01:30:16;;;;;;;10.30;5.90;;;;;;;11.55;100.00;163583.84;5033872;28;20041;-58
2022/04/13 01:32:41;;;;;;;10.40;6.88;;;;;;;11.57;100.00;163589.25;5032369;28;20492;-58
2022/04/13 01:35:07;;;;;;;11.15;6.53;;;;;;;11.60;100.00;163597.31;5034043;28;20032;-58
2022/04/13 01:37:34;;;;;;;15.18;5.97;;;;;;;11.60;100.00;163597.31;5032256;28;20044;-58
2022/04/13 01:39:59;;;;;;;16.88;7.90;;;;;;;11.56;100.00;163586.53;5033380;28;20036;-58
2022/04/13 01:42:24;;;;;;;13.93;6.32;;;;;;;11.61;100.00;163600.03;5032072;28;20057;-58
2022/04/13 01:44:50;;;;;;;17.02;7.38;;;;;;;11.52;100.00;163575.72;5033465;28;20050;-58
2022/04/13 01:47:15;;;;;;;13.43;8.05;;;;;;;11.42;100.00;163551.44;5031776;28;20044;-58
2022/04/13 01:49:42;;;;;;;15.80;7.50;;;;;;;11.34;100.00;163529.84;5030695;28;20021;-58
2022/04/13 01:52:08;;;;;;;19.88;9.95;;;;;;;11.25;100.00;163505.50;5031602;28;20092;-58
2022/04/13 01:54:34;;;;;;;11.70;7.05;;;;;;;11.13;100.00;163473.13;5033115;28;20053;-58
2022/04/13 01:56:59;;;;;;;20.85;9.43;;;;;;;11.07;100.00;163459.59;5032088;28;20037;-58
2022/04/13 01:59:25;;;;;;;15.05;7.60;;;;;;;11.03;100.00;163448.81;5033254;28;20036;-58
2022/04/13 02:01:50;;;;;;;10.50;7.25;;;;;;;10.95;100.00;163427.19;5031584;28;20050;-58
2022/04/13 02:04:21;;;;;;;13.85;6.32;;;;;;;10.87;100.00;163405.59;5033236;28;20548;-58
2022/04/13 02:06:47;;;;;;;15.60;9.02;;;;;;;10.76;100.00;163377.25;5031671;28;20124;-58
2022/04/13 02:09:12;;;;;;;10.13;7.80;;;;;;;10.65;100.00;163348.91;5032969;28;20669;-58
2022/04/13 02:11:38;;;;;;;21.92;7.80;;;;;;;10.58;100.00;163330.00;5031509;28;20043;-57
2022/04/13 02:14:04;;;;;;;9.32;6.68;;;;;;;10.50;100.00;163308.41;5033549;28;20024;-58
2022/04/13 02:16:29;;;;;;;10.13;6.78;;;;;;;10.38;100.00;163277.34;5031465;28;20064;-58
2022/04/13 02:18:54;;;;;;;16.13;7.80;;;;;;;10.28;100.00;163251.66;5032221;28;20025;-58
2022/04/13 02:21:20;;;;;;;12.77;7.28;;;;;;;10.19;100.00;163227.38;5031019;28;20045;-58
2022/04/13 02:23:46;;;;;;;14.43;7.85;;;;;;;10.19;100.00;163227.38;5033064;28;20029;-58
2022/04/13 02:26:12;;;;;;;18.98;7.65;;;;;;;10.19;100.00;163227.38;5031334;28;20040;-58
2022/04/13 02:28:37;;;;;;;10.88;6.70;;;;;;;10.16;100.00;163221.94;5032633;28;20029;-58
2022/04/13 02:31:03;;;;;;;17.88;7.20;;;;;;;10.20;100.00;163230.06;5031589;28;20037;-58
2022/04/13 02:33:31;;;;;;;17.23;8.68;;;;;;;10.22;100.00;163236.81;5032269;28;20025;-58
2022/04/13 02:35:57;;;;;;;8.57;7.65;;;;;;;10.11;100.00;163208.47;5031399;28;20082;-56
2022/04/13 02:38:23;;;;;;;13.05;7.40;;;;;;;10.00;100.00;163178.81;5032665;28;20025;-58
2022/04/13 02:40:48;;;;;;;15.18;8.00;;;;;;;9.87;100.00;163145.06;5030929;28;20496;-58
2022/04/13 02:43:14;;;;;;;13.48;7.40;;;;;;;9.77;100.00;163119.44;5032699;28;20018;-58
2022/04/13 02:45:39;;;;;;;14.02;7.82;;;;;;;9.68;100.00;163096.47;5032613;28;20468;-58
2022/04/13 02:48:04;;;;;;;10.93;7.15;;;;;;;9.69;100.00;163097.84;5030825;28;20049;-58
2022/04/13 02:50:30;;;;;;;15.95;6.78;;;;;;;9.72;100.00;163105.91;5031700;28;20056;-59
2022/04/13 02:52:56;;;;;;;24.77;9.40;;;;;;;9.82;100.00;163131.59;5030846;28;20041;-58
2022/04/13 02:55:22;;;;;;;18.20;8.07;;;;;;;9.86;100.00;163141.03;5031977;28;20025;-58
2022/04/13 02:57:47;;;;;;;25.23;9.93;;;;;;;9.86;100.00;163142.38;5030946;28;20041;-58
2022/04/13 03:00:13;;;;;;;11.55;6.78;;;;;;;9.76;100.00;163116.75;5032256;28;20037;-58
2022/04/13 03:02:40;;;;;;;7.30;5.45;;;;;;;9.78;100.00;163120.78;5030403;28;20065;-58
2022/04/13 03:05:05;;;;;;;10.55;7.40;;;;;;;9.71;100.00;163103.25;5031883;28;20025;-58
2022/04/13 03:07:32;;;;;;;13.93;7.15;;;;;;;9.60;100.00;163073.56;5030576;28;20048;-58
2022/04/13 03:09:58;;;;;;;9.80;6.50;;;;;;;9.47;100.00;163041.22;5031991;28;20025;-58
2022/04/13 03:12:24;;;;;;;14.18;7.38;;;;;;;9.44;100.00;163033.09;5030588;28;20400;-58
2022/04/13 03:14:50;;;;;;;12.70;7.10;;;;;;;9.28;100.00;162991.31;5032058;28;20026;-58
2022/04/13 03:17:16;;;;;;;10.38;7.22;;;;;;;9.27;100.00;162987.28;5030063;28;20125;-59
2022/04/13 03:19:41;;;;;;;11.55;7.25;;;;;;;9.22;100.00;162975.13;5031868;28;20014;-58
2022/04/13 03:22:06;;;;;;;12.20;7.72;;;;;;;9.26;100.00;162984.56;5030815;28;20467;-58
2022/04/13 03:24:34;;;;;;;14.77;6.65;;;;;;;9.37;100.00;163014.22;5031369;28;20036;-58
2022/04/13 03:26:59;;;;;;;11.27;7.20;;;;;;;9.46;100.00;163038.50;5030544;28;20152;-59
2022/04/13 03:29:25;;;;;;;18.00;8.25;;;;;;;9.47;100.00;163041.22;5030673;28;20481;-59
2022/04/13 03:31:50;;;;;;;7.68;5.80;;;;;;;9.52;100.00;163054.69;5029901;28;20046;-57
2022/04/13 03:34:20;;;;;;;14.00;7.05;;;;;;;9.58;100.00;163068.16;5031365;28;20029;-58
2022/04/13 03:36:48;;;;;;;13.38;5.57;;;;;;;9.65;100.00;163087.03;5030477;28;20048;-57
2022/04/13 03:39:14;;;;;;;10.88;6.75;;;;;;;9.69;100.00;163097.84;5031288;28;20393;-57
2022/04/13 03:41:40;;;;;;;16.48;8.95;;;;;;;9.79;100.00;163124.81;5030419;28;20033;-57
2022/04/13 03:44:05;;;;;;;11.65;6.13;;;;;;;9.88;100.00;163146.41;5031615;28;20095;-58
2022/04/13 03:46:31;;;;;;;18.20;7.18;;;;;;;9.91;100.00;163154.50;5029417;28;20041;-58
2022/04/13 03:48:56;;;;;;;14.38;6.78;;;;;;;9.88;100.00;163146.41;5030765;28;20033;-58
2022/04/13 03:51:22;;;;;;;14.55;7.45;;;;;;;9.96;100.00;163169.38;5029874;28;20033;-57
2022/04/13 03:53:47;;;;;;;17.67;6.85;;;;;;;9.95;100.00;163165.28;5030928;28;20036;-57
2022/04/13 03:56:12;;;;;;;14.77;6.45;;;;;;;10.04;100.00;163189.59;5030054;28;20037;-58
2022/04/13 03:58:40;;;;;;;13.10;6.95;;;;;;;10.04;100.00;163189.59;5031053;28;20017;-58
2022/04/13 04:01:06;;;;;;;10.45;6.30;;;;;;;10.05;100.00;163192.28;5029380;28;20115;-57
2022/04/13 04:03:31;;;;;;;13.18;5.88;;;;;;;10.06;100.00;163195.00;5031087;28;20485;-57
2022/04/13 04:05:57;;;;;;;25.58;8.18;;;;;;;10.04;100.00;163189.59;5029915;28;20024;-57
2022/04/13 04:08:23;;;;;;;13.13;7.38;;;;;;;10.05;100.00;163192.28;5030185;28;20025;-57
2022/04/13 04:10:49;;;;;;;19.38;7.03;;;;;;;10.12;100.00;163211.19;5029660;28;20022;-57
2022/04/13 04:13:14;;;;;;;25.92;9.07;;;;;;;10.09;100.00;163203.06;5030786;28;20432;-57
2022/04/13 04:15:39;;;;;;;16.33;6.20;;;;;;;10.03;100.00;163186.88;5030393;28;20459;-57
2022/04/13 04:18:06;;;;;;;18.92;8.45;;;;;;;9.86;100.00;163141.03;5028893;28;20037;-57
2022/04/13 04:20:31;;;;;;;19.10;6.90;;;;;;;9.85;100.00;163139.66;5031066;28;20056;-56
2022/04/13 04:22:56;;;;;;;15.13;7.05;;;;;;;9.77;100.00;163119.44;5028598;28;20045;-57
2022/04/13 04:25:22;;;;;;;10.88;7.13;;;;;;;9.73;100.00;163108.63;5031138;28;20033;-57
2022/04/13 04:27:47;;;;;;;19.88;8.52;;;;;;;9.73;100.00;163108.63;5029644;28;20033;-57
2022/04/13 04:30:12;;;;;;;11.88;5.80;;;;;;;9.82;100.00;163132.94;5030645;28;20029;-57
2022/04/13 04:32:38;;;;;;;11.10;7.28;;;;;;;9.90;100.00;163151.81;5028961;28;20041;-57
2022/04/13 04:35:05;;;;;;;15.45;7.22;;;;;;;9.82;100.00;163132.94;5031141;28;20029;-57
2022/04/13 04:37:30;;;;;;;11.77;6.65;;;;;;;9.79;100.00;163123.47;5028383;28;20044;-57
2022/04/13 04:39:56;;;;;;;27.17;9.88;;;;;;;9.77;100.00;163119.44;5030260;28;20017;-57
2022/04/13 04:42:21;;;;;;;10.30;6.45;;;;;;;9.70;100.00;163100.56;5032288;28;20045;-57
2022/04/13 04:44:46;;;;;;;13.88;6.47;;;;;;;9.70;100.00;163100.56;5033785;28;20021;-57
2022/04/13 04:47:12;;;;;;;17.50;8.43;;;;;;;9.65;100.00;163087.03;5032815;28;20045;-57
2022/04/13 04:49:37;;;;;;;22.15;12.43;;;;;;;9.58;100.00;163068.16;5034257;28;20028;-57
2022/04/13 04:52:03;;;;;;;12.43;8.10;;;;;;;9.52;100.00;163053.34;5028298;28;20037;-57
2022/04/13 04:54:28;;;;;;;11.70;7.97;;;;;;;9.51;100.00;163051.97;5024988;28;20028;-57
2022/04/13 04:56:53;;;;;;;18.35;8.02;;;;;;;9.53;100.00;163057.38;5021650;28;20512;-57
2022/04/13 04:59:19;;;;;;;17.55;7.47;;;;;;;9.59;100.00;163072.25;5024676;28;20013;-57
2022/04/13 05:01:44;;;;;;;16.05;8.90;;;;;;;9.71;100.00;163103.25;5022384;28;20056;-57
2022/04/13 05:04:09;;;;;;;11.75;8.23;;;;;;;9.71;100.00;163101.91;5023145;28;20025;-57
2022/04/13 05:06:35;;;;;;;23.10;9.52;;;;;;;9.68;100.00;163096.47;5021512;28;20042;-56
2022/04/13 05:09:00;;;;;;;8.75;7.13;;;;;;;9.68;100.00;163095.16;5024213;28;20022;-57
2022/04/13 05:11:26;;;;;;;10.13;6.70;;;;;;;9.62;100.00;163078.97;5022919;28;20057;-56
2022/04/13 05:13:51;;;;;;;9.82;6.72;;;;;;;9.51;100.00;163051.97;5022978;28;20030;-57
2022/04/13 05:16:18;;;;;;;22.65;8.02;;;;;;;9.52;100.00;163053.34;5023063;28;20037;-57
2022/04/13 05:18:47;;;;;;;11.95;6.93;;;;;;;9.60;100.00;163073.56;5024954;28;20048;-57
2022/04/13 05:21:13;;;;;;;15.52;8.50;;;;;;;9.52;100.00;163054.69;5023556;28;20037;-57
2022/04/13 05:23:41;;;;;;;16.95;8.45;;;;;;;9.45;100.00;163035.81;5022835;28;20108;-57
2022/04/13 05:26:06;;;;;;;11.98;7.40;;;;;;;9.49;100.00;163046.56;5021947;28;20129;-56
2022/04/13 05:28:32;;;;;;;19.17;9.32;;;;;;;9.58;100.00;163069.53;5024549;28;20021;-57
2022/04/13 05:30:57;;;;;;;14.02;7.15;;;;;;;9.60;100.00;163073.56;5021068;28;20017;-57
2022/04/13 05:33:23;;;;;;;17.63;8.30;;;;;;;9.69;100.00;163097.84;5022777;28;20013;-57
2022/04/13 05:35:49;;;;;;;10.48;8.35;;;;;;;9.78;100.00;163122.16;5021377;28;20025;-56
2022/04/13 05:38:14;;;;;;;12.23;7.88;;;;;;;9.88;100.00;163146.41;5022141;28;20013;-57
2022/04/13 05:40:40;;;;;;;15.38;7.47;;;;;;;9.95;100.00;163166.66;5024027;28;20461;-57
2022/04/13 05:43:06;;;;;;;8.07;7.28;;;;;;;9.96;100.00;163168.00;5025226;28;20407;-56
2022/04/13 05:45:31;;;;;;;12.73;7.22;;;;;;;10.00;100.00;163180.16;5033337;28;20108;-57
2022/04/13 05:47:57;;;;;;;11.50;6.82;;;;;;;9.97;100.00;163172.06;5032105;28;20044;-56
2022/04/13 05:50:22;;;;;;;16.77;7.43;;;;;;;9.97;100.00;163170.69;5033468;28;20021;-57
2022/04/13 05:52:48;;;;;;;14.23;8.23;;;;;;;9.94;100.00;163162.63;5030933;28;20574;-57
2022/04/13 05:55:13;;;;;;;13.13;8.93;;;;;;;9.96;100.00;163168.00;5033575;28;20021;-57
2022/04/13 05:57:39;;;;;;;14.27;7.05;;;;;;;10.05;100.00;163192.28;5032023;28;20033;-57
2022/04/13 06:00:06;;;;;;;12.95;7.18;;;;;;;10.12;100.00;163211.19;5032763;28;20053;-56
2022/04/13 06:02:32;;;;;;;11.00;7.43;;;;;;;10.19;100.00;163227.38;5031939;28;20182;-54
2022/04/13 06:04:58;;;;;;;23.83;8.43;;;;;;;10.32;100.00;163262.44;5032689;28;20017;-54
2022/04/13 06:07:23;;;;;;;19.88;8.05;;;;;;;10.55;100.00;163321.88;5030575;28;20091;-53
2022/04/13 06:09:49;;;;;;;12.23;8.80;;;;;;;10.73;100.00;163370.50;5032415;28;20025;-54
2022/04/13 06:12:22;;;;;;;9.20;8.25;;;;;;;10.85;100.00;163401.56;5031747;28;20041;-54
2022/04/13 06:14:47;;;;;;;14.00;7.80;;;;;;;10.98;100.00;163435.31;5032485;28;20516;-54
2022/04/13 06:17:12;;;;;;;8.63;7.00;;;;;;;11.16;100.00;163481.19;5031861;28;20056;-54
2022/04/13 06:19:38;;;;;;;11.82;7.82;;;;;;;11.28;100.00;163513.63;5032921;28;20024;-53
2022/04/13 06:22:03;;;;;;;10.48;8.82;;;;;;;11.37;100.00;163537.91;5031393;28;20100;-53
2022/04/13 06:24:29;;;;;;;11.70;8.38;;;;;;;11.46;100.00;163560.91;5032627;28;20021;-53
2022/04/13 06:26:54;;;;;;;16.38;9.10;;;;;;;11.58;100.00;163591.91;5031611;28;20038;-54
2022/04/13 06:29:19;;;;;;;17.80;9.88;;;;;;;11.73;100.00;163632.44;5030417;28;20033;-54
2022/04/13 06:31:44;;;;;;;14.35;9.35;;;;;;;11.91;100.00;163678.38;5031333;28;20034;-54
2022/04/13 06:34:10;;;;;;;12.88;9.88;;;;;;;12.05;100.00;163716.25;5032994;28;20022;-53
2022/04/13 06:36:35;;;;;;;25.40;10.55;;;;;;;12.22;100.00;163760.84;5030980;28;20374;-54
2022/04/13 06:39:00;;;;;;;14.95;8.68;;;;;;;12.34;100.00;163791.91;5032804;28;20033;-54
2022/04/13 06:41:26;;;;;;;18.55;9.05;;;;;;;12.41;100.00;163809.50;5031096;28;20038;-54
2022/04/13 06:43:53;;;;;;;18.45;8.95;;;;;;;12.60;100.00;163859.50;5032595;28;20029;-54
2022/04/13 06:46:18;;;;;;;15.73;9.85;;;;;;;12.85;100.00;163925.72;5031079;28;20052;-54
2022/04/13 06:48:43;;;;;;;20.65;9.50;;;;;;;12.99;100.00;163962.19;5032307;28;20620;-54
2022/04/13 06:51:09;;;;;;;16.65;8.43;;;;;;;13.16;100.00;164006.84;5030743;28;20042;-55
2022/04/13 06:53:34;;;;;;;14.23;8.35;;;;;;;13.36;100.00;164056.88;5032297;28;20033;-55
2022/04/13 06:56:00;;;;;;;13.90;9.70;;;;;;;13.51;100.00;164096.13;5031452;28;20032;-54
2022/04/13 06:58:25;;;;;;;12.13;8.32;;;;;;;13.74;100.00;164156.94;5031917;28;20405;-54
2022/04/13 07:00:50;;;;;;;20.27;10.27;;;;;;;14.03;100.00;164232.72;5030872;28;20500;-55
2022/04/13 07:03:16;;;;;;;12.93;8.50;;;;;;;14.33;100.00;164311.19;5032353;28;20025;-55
2022/04/13 07:05:41;;;;;;;20.67;9.60;;;;;;;14.26;100.00;164294.91;5030338;28;20022;-54
2022/04/13 07:08:07;;;;;;;12.95;9.65;;;;;;;14.27;100.00;164297.63;5032506;28;20022;-54
2022/04/13 07:10:33;;;;;;;17.25;9.93;;;;;;;14.45;100.00;164343.66;5026931;28;20037;-52
2022/04/13 07:13:00;;;;;;;19.20;8.30;;;;;;;14.57;100.00;164374.78;5023397;28;20203;-52
2022/04/13 07:15:26;;;;;;;20.42;10.63;;;;;;;14.83;100.00;164442.44;5030339;28;20053;-52
2022/04/13 07:17:52;;;;;;;18.48;10.23;;;;;;;15.21;100.00;164544.00;5028351;28;20618;-52
2022/04/13 07:20:18;;;;;;;20.00;10.48;;;;;;;16.26;100.00;164818.88;5031092;28;20100;-54
2022/04/13 07:22:47;;;;;;;14.90;10.32;;;;;;;17.34;100.00;165102.06;5030035;28;20520;-55
2022/04/13 07:25:13;;;;;;;12.60;8.57;;;;;;;18.22;100.00;165332.56;5031513;28;20029;-55
2022/04/13 07:27:39;;;;;;;8.48;7.60;;;;;;;18.10;100.00;165300.03;5029507;28;20038;-55
2022/04/13 07:30:04;;;;;;;12.25;6.38;;;;;;;17.80;100.00;165221.34;5032018;28;20030;-54
2022/04/13 07:32:30;;;;;;;12.73;7.43;;;;;;;18.29;100.00;165351.53;5030090;28;20049;-54
2022/04/13 07:34:58;;;;;;;12.90;6.90;;;;;;;18.92;100.00;165515.66;5031327;28;20036;-52
2022/04/13 07:37:24;;;;;;;17.73;7.95;;;;;;;19.14;100.00;165574.03;5030027;28;20041;-53
2022/04/13 07:39:49;;;;;;;12.68;7.68;;;;;;;19.11;100.00;165565.84;5031678;28;20024;-53
2022/04/13 07:42:22;;;;;;;12.93;7.45;;;;;;;19.79;100.00;165744.97;5029649;28;20124;-53
2022/04/13 07:44:47;;;;;;;15.82;5.32;;;;;;;20.20;100.00;165853.59;5031625;28;20087;-52
2022/04/13 07:47:14;;;;;;;8.68;5.70;;;;;;;20.31;100.00;165880.72;5030065;28;20093;-52
2022/04/13 07:49:41;;;;;;;9.27;4.38;;;;;;;20.13;100.00;165834.59;5031378;28;20028;-55
2022/04/13 07:52:09;;;;;;;8.02;4.18;;;;;;;19.83;100.00;165755.84;5030113;28;20095;-55
2022/04/13 07:54:35;;;;;;;14.75;5.03;;;;;;;19.69;100.00;165717.84;5031103;28;20120;-55
2022/04/13 07:57:00;;;;;;;11.60;4.32;;;;;;;18.95;100.00;165525.16;5029592;28;20128;-55
2022/04/13 07:59:27;;;;;;;10.02;5.00;;;;;;;19.06;100.00;165553.69;5030875;28;20025;-51
2022/04/13 08:01:53;;;;;;;10.35;3.63;;;;;;;19.53;100.00;165677.13;5029748;28;20049;-52
2022/04/13 08:04:18;;;;;;;7.65;4.90;;;;;;;19.15;100.00;165578.06;5031043;28;20028;-53
2022/04/13 08:06:43;;;;;;;9.23;4.00;;;;;;;19.13;100.00;165571.31;5029380;28;20037;-53
2022/04/13 08:09:09;;;;;;;8.77;4.38;;;;;;;19.24;100.00;165601.16;5022896;28;20021;-53
2022/04/13 08:11:34;;;;;;;14.07;5.05;;;;;;;19.44;100.00;165654.03;5009677;28;20042;-52
2022/04/13 08:13:59;;;;;;;11.13;5.40;;;;;;;19.37;100.00;165633.72;5011348;28;20026;-52
2022/04/13 08:16:25;;;;;;;11.55;4.57;;;;;;;18.86;100.00;165500.72;5007947;28;20046;-53
2022/04/13 08:18:50;;;;;;;14.98;6.25;;;;;;;19.27;100.00;165609.28;5011498;28;20072;-52
2022/04/13 08:21:15;;;;;;;13.23;6.68;;;;;;;18.69;100.00;165457.31;5009820;28;20045;-53
2022/04/13 08:23:41;;;;;;;8.65;6.53;;;;;;;18.23;100.00;165335.28;5011274;28;20600;-55
2022/04/13 08:26:06;;;;;;;10.48;6.38;;;;;;;18.31;100.00;165356.97;5010156;28;20052;-55
2022/04/13 08:28:31;;;;;;;12.73;5.95;;;;;;;18.31;100.00;165356.97;5010647;28;20036;-55
2022/04/13 08:30:57;;;;;;;12.43;5.93;;;;;;;18.69;100.00;165457.31;5009840;28;20032;-55
2022/04/13 08:33:22;;;;;;;10.85;6.22;;;;;;;19.59;100.00;165693.41;5011446;28;20477;-55
2022/04/13 08:35:47;;;;;;;9.02;5.15;;;;;;;20.18;100.00;165848.16;5009604;28;20385;-55
2022/04/13 08:38:13;;;;;;;12.02;7.47;;;;;;;19.41;100.00;165644.53;5011095;28;20026;-55
2022/04/13 08:40:55;;;;;;;13.10;5.97;;;;;;;19.36;100.00;165632.31;5011144;28;20014;-55
2022/04/13 08:44:01;;;;;;;9.20;5.75;;;;;;;19.01;100.00;165540.09;5009552;28;20489;-54
2022/04/13 08:46:28;;;;;;;7.65;5.90;;;;;;;19.61;100.00;165698.84;5009686;28;20436;-54
2022/04/13 08:48:56;;;;;;;12.10;7.95;;;;;;;19.79;100.00;165744.97;5010807;28;20526;-55
2022/04/13 08:51:24;;;;;;;12.45;5.38;;;;;;;19.72;100.00;165725.97;5011140;28;20101;-55
2022/04/13 08:54:14;;;;;;;9.27;6.28;;;;;;;20.26;100.00;165869.88;5029039;28;20037;-54
2022/04/13 08:56:42;;;;;;;9.27;6.63;;;;;;;19.88;100.00;165769.44;5029203;28;20083;-54
2022/04/13 08:59:26;;;;;;;12.63;7.22;;;;;;;20.11;100.00;165829.16;5029632;28;20022;-55
2022/04/13 09:02:29;;;;;;;14.90;7.88;;;;;;;19.94;100.00;165785.72;5029137;28;20055;-54
2022/04/13 09:04:59;;;;;;;16.23;8.15;;;;;;;20.24;100.00;165863.09;5030537;28;20053;-54
2022/04/13 09:07:32;;;;;;;10.25;7.20;;;;;;;20.08;100.00;165822.38;5025290;28;20038;-55
2022/04/13 09:10:01;;;;;;;12.75;7.38;;;;;;;20.04;100.00;165810.16;5030432;28;20156;-54
2022/04/13 09:12:30;;;;;;;14.93;7.63;;;;;;;19.94;100.00;165785.72;5028488;28;20098;-55
2022/04/13 09:14:57;;;;;;;11.57;7.43;;;;;;;19.84;100.00;165757.19;5030749;28;20025;-54
2022/04/13 09:17:27;;;;;;;10.85;8.02;;;;;;;19.58;100.00;165690.69;5028764;28;20048;-55
2022/04/13 09:19:53;;;;;;;17.55;7.13;;;;;;;19.24;100.00;165601.16;5029947;28;20018;-54
2022/04/13 09:22:21;;;;;;;11.50;7.57;;;;;;;19.91;100.00;165777.63;5028700;28;20037;-54
2022/04/13 09:24:47;;;;;;;13.82;7.55;;;;;;;19.92;100.00;165780.28;5030805;28;20029;-54
2022/04/13 09:27:13;;;;;;;9.05;6.90;;;;;;;19.57;100.00;165687.97;5029593;28;20570;-55
2022/04/13 09:29:39;;;;;;;9.75;6.78;;;;;;;19.87;100.00;165766.72;5033651;28;20014;-55
2022/04/13 09:32:04;;;;;;;12.38;6.82;;;;;;;20.09;100.00;165823.72;5032700;28;20052;-54
2022/04/13 09:34:30;;;;;;;16.60;8.30;;;;;;;20.65;100.00;165970.34;5033183;28;20261;-55
2022/04/13 09:36:55;;;;;;;11.25;7.40;;;;;;;20.49;100.00;165929.63;5029548;28;20095;-54
2022/04/13 09:39:22;;;;;;;9.43;6.82;;;;;;;21.05;100.00;166076.28;5033463;28;20017;-55
2022/04/13 09:41:47;;;;;;;13.63;8.55;;;;;;;21.56;100.00;166210.72;5032249;28;20037;-55
2022/04/13 09:44:18;;;;;;;9.48;6.50;;;;;;;21.73;100.00;166255.59;5033954;28;20088;-54
2022/04/13 09:46:44;;;;;;;12.35;7.22;;;;;;;21.56;100.00;166212.06;5032260;28;20041;-54
2022/04/13 09:49:14;;;;;;;11.82;6.95;;;;;;;22.15;100.00;166366.97;5033254;28;20362;-55
2022/04/13 09:51:49;;;;;;;9.15;6.55;;;;;;;22.33;100.00;166413.19;5032079;28;20044;-55
2022/04/13 09:54:15;;;;;;;15.18;7.78;;;;;;;22.12;100.00;166358.84;5033580;28;20362;-55
2022/04/13 09:56:47;;;;;;;11.70;7.20;;;;;;;22.08;100.00;166347.97;5031821;28;20040;-55
2022/04/13 09:59:23;;;;;;;12.65;7.18;;;;;;;21.92;100.00;166305.88;5033739;28;20152;-55
2022/04/13 10:01:49;;;;;;;12.93;9.43;;;;;;;22.11;100.00;166356.13;5032008;28;20448;-53
2022/04/13 10:04:25;;;;;;;13.02;6.90;;;;;;;21.64;100.00;166231.13;5032591;28;20026;-53
2022/04/13 10:06:50;;;;;;;14.55;7.63;;;;;;;21.29;100.00;166138.75;5032089;28;20047;-53
2022/04/13 10:09:15;;;;;;;11.63;6.82;;;;;;;22.23;100.00;166386.06;5032049;28;20440;-53
2022/04/13 10:12:03;;;;;;;13.57;7.20;;;;;;;22.72;100.00;166516.53;5031929;28;20041;-53
2022/04/13 10:14:29;;;;;;;12.55;7.65;;;;;;;22.84;100.00;166547.81;5032087;28;20034;-55
2022/04/13 10:17:06;;;;;;;13.10;8.55;;;;;;;23.85;100.00;166812.94;5032011;28;20400;-55
2022/04/13 10:19:31;;;;;;;15.07;8.43;;;;;;;24.74;100.00;167046.97;5032880;28;20124;-55
2022/04/13 10:21:58;;;;;;;7.72;6.93;;;;;;;23.94;100.00;166837.44;5031784;28;20520;-55
2022/04/13 10:24:31;;;;;;;11.82;6.03;;;;;;;23.79;100.00;166796.63;5032796;28;20026;-55
2022/04/13 10:27:03;;;;;;;9.85;7.03;;;;;;;24.91;100.00;167093.19;5030093;28;20091;-55
2022/04/13 10:29:29;;;;;;;10.13;6.28;;;;;;;24.06;100.00;166870.09;5012906;28;20564;-55
2022/04/13 10:32:15;;;;;;;12.93;7.20;;;;;;;21.75;100.00;166259.66;5011820;28;20405;-55
2022/04/13 10:34:46;;;;;;;13.70;8.35;;;;;;;22.24;100.00;166388.72;5015337;28;20022;-55
2022/04/13 10:37:14;;;;;;;17.25;7.97;;;;;;;23.68;100.00;166769.41;5027585;28;20048;-55
2022/04/13 10:39:41;;;;;;;;;;;;;;;23.45;100.00;166709.59;5032179;28;20029;-55
2022/04/13 10:42:10;;;;;;;13.25;8.43;;;;;;;22.77;100.00;166530.13;5030927;28;19921;-55
2022/04/13 10:44:37;;;;;;;9.98;7.15;;;;;;;22.01;100.00;166328.94;5032271;28;20025;-55
2022/04/13 10:47:05;;;;;;;15.02;8.73;;;;;;;20.68;100.00;165978.47;5031331;28;20095;-55
2022/04/13 10:49:55;;;;;;;9.53;6.87;;;;;;;21.01;100.00;166065.44;5031973;28;20108;-55
2022/04/13 10:52:25;;;;;;;11.77;7.30;;;;;;;21.77;100.00;166266.50;5030968;28;20476;-55
2022/04/13 10:55:02;;;;;;;11.98;7.80;;;;;;;22.17;100.00;166372.44;5023134;28;20361;-55
2022/04/13 10:57:39;;;;;;;10.90;6.60;;;;;;;21.69;100.00;166246.09;5030560;28;20117;-55
2022/04/13 11:00:06;;;;;;;12.77;7.88;;;;;;;21.52;100.00;166201.22;5024826;28;20042;-55
2022/04/13 11:02:54;;;;;;;8.23;7.03;;;;;;;22.05;100.00;166339.84;5010615;28;20038;-55
2022/04/13 11:05:25;;;;;;;;;;;;;;;22.27;100.00;166396.91;5013275;28;20087;-55
2022/04/13 11:07:58;;;;;;;11.43;7.57;;;;;;;20.88;100.00;166032.84;5011270;28;19921;-55
2022/04/13 11:10:24;;;;;;;16.98;7.82;;;;;;;20.91;100.00;166040.97;5011931;28;20058;-55